createdAt,value
2022-10-04T00:02:29.667Z,80.18
2022-10-04T00:05:01.099Z,79.92
2022-10-04T00:07:30.227Z,80.90
2022-10-04T00:09:58.237Z,80.32
2022-10-04T00:12:26.418Z,80.79
2022-10-04T00:14:55.196Z,81.12
2022-10-04T00:17:27.185Z,80.29
2022-10-04T00:19:54.493Z,79.93
2022-10-04T00:22:25.262Z,80.43
2022-10-04T00:25:06.960Z,80.01
2022-10-04T00:27:34.146Z,79.85
2022-10-04T00:30:03.210Z,80.05
2022-10-04T00:32:39.320Z,80.90
2022-10-04T00:35:24.105Z,80.09
2022-10-04T00:37:58.040Z,80.46
2022-10-04T00:40:28.219Z,79.86
2022-10-04T00:42:58.791Z,80.32
2022-10-04T00:45:30.923Z,80.46
2022-10-04T00:47:59.990Z,79.83
2022-10-04T00:50:47.200Z,81.13
2022-10-04T00:53:18.583Z,80.93
2022-10-04T00:55:49.022Z,79.53
2022-10-04T00:58:25.406Z,79.39
2022-10-04T01:00:53.641Z,79.96
2022-10-04T01:03:39.987Z,78.93
2022-10-04T01:06:10.186Z,79.63
2022-10-04T01:08:47.965Z,79.43
2022-10-04T01:11:20.230Z,77.79
2022-10-04T01:14:21.897Z,78.66
2022-10-04T01:16:48.340Z,78.31
2022-10-04T01:19:26.563Z,78.72
2022-10-04T01:22:01.872Z,78.18
2022-10-04T01:24:33.822Z,78.28
2022-10-04T01:27:00.737Z,77.38
2022-10-04T01:29:28.501Z,76.42
2022-10-04T01:31:56.088Z,76.59
2022-10-04T01:34:27.516Z,77.85
2022-10-04T01:36:59.099Z,77.71
2022-10-04T01:39:26.437Z,77.24
2022-10-04T01:42:05.219Z,77.23
2022-10-04T01:44:31.506Z,78.60
2022-10-04T01:46:59.733Z,78.50
2022-10-04T01:49:28.409Z,78.47
2022-10-04T01:52:02.416Z,78.97
2022-10-04T01:54:33.913Z,78.51
2022-10-04T01:57:04.932Z,78.65
2022-10-04T01:59:34.887Z,79.54
2022-10-04T02:02:04.317Z,78.59
2022-10-04T02:04:32.586Z,80.14
2022-10-04T02:07:00.284Z,80.43
2022-10-04T02:09:29.437Z,79.80
2022-10-04T02:11:58.175Z,79.62
2022-10-04T02:14:29.883Z,80.43
2022-10-04T02:16:56.399Z,80.05
2022-10-04T02:19:25.014Z,79.96
2022-10-04T02:21:52.232Z,80.06
2022-10-04T02:24:19.007Z,80.88
2022-10-04T02:26:52.282Z,79.80
2022-10-04T02:29:19.720Z,79.87
2022-10-04T02:32:06.414Z,80.08
2022-10-04T02:34:33.004Z,79.75
2022-10-04T02:37:01.749Z,79.21
2022-10-04T02:39:30.195Z,78.96
2022-10-04T02:42:02.566Z,79.87
2022-10-04T02:44:42.107Z,79.36
2022-10-04T02:47:12.818Z,79.99
2022-10-04T02:49:58.116Z,80.61
2022-10-04T02:52:31.516Z,80.16
2022-10-04T02:55:02.708Z,81.41
2022-10-04T02:57:30.822Z,80.97
2022-10-04T03:00:09.291Z,79.92
2022-10-04T03:02:35.616Z,79.63
2022-10-04T03:05:06.954Z,80.10
2022-10-04T03:07:35.075Z,80.22
2022-10-04T03:10:02.116Z,79.71
2022-10-04T03:12:28.461Z,78.74
2022-10-04T03:14:55.194Z,79.26
2022-10-04T03:17:21.985Z,79.38
2022-10-04T03:19:48.852Z,79.20
2022-10-04T03:22:15.741Z,78.84
2022-10-04T03:24:50.094Z,79.21
2022-10-04T03:27:24.880Z,78.80
2022-10-04T03:29:53.582Z,78.48
2022-10-04T03:32:23.353Z,78.68
2022-10-04T03:34:55.439Z,79.62
2022-10-04T03:37:22.003Z,80.77
2022-10-04T03:39:52.673Z,80.09
2022-10-04T03:42:24.297Z,80.16
2022-10-04T03:44:52.062Z,80.66
2022-10-04T03:47:27.230Z,80.13
2022-10-04T03:49:55.401Z,80.68
2022-10-04T03:52:25.497Z,80.00
2022-10-04T03:54:53.280Z,81.17
2022-10-04T03:57:19.565Z,81.04
2022-10-04T03:59:45.943Z,81.21
2022-10-04T04:02:12.214Z,80.71
2022-10-04T04:04:44.638Z,80.70
2022-10-04T04:07:20.984Z,80.81
2022-10-04T04:09:50.969Z,80.45
2022-10-04T04:12:20.403Z,80.97
2022-10-04T04:14:49.608Z,81.09
2022-10-04T04:17:35.791Z,80.40
2022-10-04T04:20:07.400Z,80.68
2022-10-04T04:22:34.916Z,80.61
2022-10-04T04:25:02.598Z,81.54
2022-10-04T04:27:29.836Z,81.51
2022-10-04T04:29:59.179Z,80.98
2022-10-04T04:32:31.075Z,81.12
2022-10-04T04:34:58.501Z,81.58
2022-10-04T04:37:24.754Z,81.73
2022-10-04T04:39:54.812Z,81.52
2022-10-04T04:42:31.692Z,81.65
2022-10-04T04:45:00.794Z,82.18
2022-10-04T04:47:28.850Z,81.84
2022-10-04T04:49:57.072Z,81.92
2022-10-04T04:52:26.000Z,81.92
2022-10-04T04:54:53.065Z,81.95
2022-10-04T04:57:19.637Z,81.90
2022-10-04T04:59:47.251Z,81.71
2022-10-04T05:02:27.808Z,81.85
2022-10-04T05:05:12.776Z,81.69
2022-10-04T05:07:39.053Z,81.12
2022-10-04T05:10:19.889Z,80.71
2022-10-04T05:12:47.175Z,79.28
2022-10-04T05:15:15.296Z,80.52
2022-10-04T05:17:41.799Z,80.31
2022-10-04T05:20:08.181Z,79.83
2022-10-04T05:22:34.991Z,80.05
2022-10-04T05:25:03.139Z,78.61
2022-10-04T05:27:34.345Z,78.37
2022-10-04T05:30:00.547Z,78.62
2022-10-04T05:32:33.064Z,78.06
2022-10-04T05:35:00.217Z,79.56
2022-10-04T05:37:49.738Z,79.63
2022-10-04T05:40:24.016Z,78.47
2022-10-04T05:42:52.014Z,79.51
2022-10-04T05:45:25.945Z,80.10
2022-10-04T05:47:53.706Z,80.15
2022-10-04T05:50:30.079Z,80.10
2022-10-04T05:53:08.949Z,80.27
2022-10-04T05:55:43.910Z,81.07
2022-10-04T05:58:19.769Z,80.85
2022-10-04T06:01:04.630Z,81.17
2022-10-04T06:03:43.222Z,81.24
2022-10-04T06:06:19.640Z,81.31
2022-10-04T06:09:18.428Z,80.96
2022-10-04T06:12:08.123Z,81.03
2022-10-04T06:14:34.406Z,81.72
2022-10-04T06:17:09.478Z,82.38
2022-10-04T06:19:38.725Z,82.23
2022-10-04T06:22:18.315Z,82.48
2022-10-04T06:24:50.966Z,82.32
2022-10-04T06:27:23.594Z,82.27
2022-10-04T06:29:54.148Z,82.20
2022-10-04T06:32:38.480Z,82.52
2022-10-04T06:35:11.023Z,81.94
2022-10-04T06:37:53.401Z,82.10
2022-10-04T06:40:28.797Z,82.17
2022-10-04T06:43:13.967Z,82.73
2022-10-04T06:45:43.239Z,82.91
2022-10-04T06:48:21.733Z,83.44
2022-10-04T06:50:58.921Z,83.76
2022-10-04T06:54:03.825Z,83.00
2022-10-04T06:56:59.382Z,82.62
2022-10-04T06:59:34.099Z,83.88
2022-10-04T07:02:03.881Z,83.13
2022-10-04T07:05:03.197Z,83.18
2022-10-04T07:07:35.587Z,82.79
2022-10-04T07:10:08.093Z,82.48
2022-10-04T07:12:38.596Z,81.97
2022-10-04T07:15:13.540Z,81.99
2022-10-04T07:17:42.449Z,81.51
2022-10-04T07:20:21.138Z,81.08
2022-10-04T07:22:51.476Z,80.63
2022-10-04T07:25:23.914Z,80.65
2022-10-04T07:28:21.209Z,81.17
2022-10-04T07:31:06.258Z,79.47
2022-10-04T07:33:35.672Z,79.69
2022-10-04T07:36:13.000Z,80.51
2022-10-04T07:38:46.217Z,79.81
2022-10-04T07:41:16.995Z,68.29
2022-10-04T07:43:49.999Z,79.08
2022-10-04T07:46:19.129Z,82.52
2022-10-04T07:48:49.014Z,81.39
2022-10-04T07:51:30.245Z,81.98
2022-10-04T07:54:10.250Z,80.83
2022-10-04T07:56:41.016Z,81.35
2022-10-04T07:59:20.799Z,80.70
2022-10-04T08:02:01.235Z,79.99
2022-10-04T08:04:29.508Z,81.66
2022-10-04T08:07:00.158Z,81.51
2022-10-04T08:09:26.458Z,80.58
2022-10-04T08:11:58.897Z,80.49
2022-10-04T08:14:31.248Z,81.56
2022-10-04T08:17:17.757Z,80.45
2022-10-04T08:19:56.354Z,80.84
2022-10-04T08:22:33.922Z,81.11
2022-10-04T08:25:26.740Z,80.77
2022-10-04T08:28:11.501Z,80.83
2022-10-04T08:30:48.086Z,81.32
2022-10-04T08:33:22.837Z,81.75
2022-10-04T08:36:09.382Z,81.76
2022-10-04T08:38:42.308Z,82.17
2022-10-04T08:41:38.125Z,81.47
2022-10-04T08:44:16.662Z,81.79
2022-10-04T08:46:59.102Z,81.85
2022-10-04T08:49:35.483Z,80.60
2022-10-04T08:52:04.484Z,79.68
2022-10-04T08:54:35.467Z,80.43
2022-10-04T08:57:15.623Z,80.39
2022-10-04T08:59:58.664Z,80.24
2022-10-04T09:02:44.766Z,80.06
2022-10-04T09:05:29.533Z,78.85
2022-10-04T09:08:17.132Z,78.55
2022-10-04T09:11:02.147Z,78.88
2022-10-04T09:13:30.369Z,79.97
2022-10-04T09:16:03.715Z,79.44
2022-10-04T09:18:45.427Z,79.17
2022-10-04T09:21:17.074Z,78.89
2022-10-04T09:23:57.802Z,78.45
2022-10-04T09:26:32.325Z,79.35
2022-10-04T09:29:13.038Z,78.98
2022-10-04T09:31:54.503Z,80.13
2022-10-04T09:34:50.208Z,78.89
2022-10-04T09:37:34.135Z,80.33
2022-10-04T09:40:20.118Z,79.64
2022-10-04T09:43:00.751Z,80.76
2022-10-04T09:45:45.595Z,80.20
2022-10-04T09:48:11.801Z,80.12
2022-10-04T09:50:52.640Z,80.48
2022-10-04T09:53:46.185Z,79.74
2022-10-04T09:56:12.418Z,80.14
2022-10-04T09:58:53.766Z,80.36
2022-10-04T10:01:38.914Z,78.61
2022-10-04T10:04:20.462Z,78.09
2022-10-04T10:07:14.420Z,78.77
2022-10-04T10:10:18.226Z,78.65
2022-10-04T10:13:06.040Z,79.80
2022-10-04T10:15:59.376Z,80.05
2022-10-04T10:18:34.091Z,80.24
2022-10-04T10:21:00.578Z,78.90
2022-10-04T10:23:37.210Z,78.09
2022-10-04T10:26:22.855Z,78.34
2022-10-04T10:29:02.529Z,79.48
2022-10-04T10:31:50.854Z,79.58
2022-10-04T10:34:35.624Z,79.23
2022-10-04T10:37:22.844Z,79.18
2022-10-04T10:40:06.835Z,78.08
2022-10-04T10:42:43.192Z,76.95
2022-10-04T10:45:35.642Z,78.89
2022-10-04T10:48:09.197Z,78.32
2022-10-04T10:51:00.215Z,76.96
2022-10-04T10:53:48.050Z,77.04
2022-10-04T10:56:33.077Z,76.51
2022-10-04T10:59:18.384Z,75.97
2022-10-04T11:02:05.650Z,76.22
2022-10-04T11:04:54.600Z,76.25
2022-10-04T11:07:22.836Z,76.11
2022-10-04T11:10:23.194Z,77.00
2022-10-04T11:13:02.258Z,76.64
2022-10-04T11:15:31.603Z,76.70
2022-10-04T11:18:13.101Z,76.88
2022-10-04T11:20:48.863Z,75.41
2022-10-04T11:23:15.177Z,77.60
2022-10-04T11:25:44.237Z,77.17
2022-10-04T11:28:46.721Z,74.83
2022-10-04T11:31:38.000Z,74.08
2022-10-04T11:34:19.446Z,74.55
2022-10-04T11:37:07.032Z,74.46
2022-10-04T11:39:44.665Z,73.36
2022-10-04T11:42:28.698Z,74.47
2022-10-04T11:45:21.038Z,73.86
2022-10-04T11:48:00.147Z,74.49
2022-10-04T11:50:41.513Z,75.48
2022-10-04T11:53:07.985Z,75.13
2022-10-04T11:55:54.445Z,75.54
2022-10-04T11:58:32.918Z,73.82
2022-10-04T12:01:08.059Z,73.90
2022-10-04T12:03:35.749Z,74.14
2022-10-04T12:06:22.240Z,73.67
2022-10-04T12:09:04.731Z,74.09
2022-10-04T12:11:54.088Z,74.31
2022-10-04T12:14:42.511Z,74.32
2022-10-04T12:17:28.809Z,73.94
2022-10-04T12:20:11.913Z,74.45
2022-10-04T12:22:45.457Z,73.76
2022-10-04T12:25:30.540Z,75.59
2022-10-04T12:28:11.225Z,75.63
2022-10-04T12:30:55.025Z,74.30
2022-10-04T12:33:25.609Z,73.80
2022-10-04T12:35:57.202Z,72.66
2022-10-04T12:38:35.540Z,73.29
2022-10-04T12:41:24.489Z,72.94
2022-10-04T12:44:07.869Z,73.35
2022-10-04T12:46:54.671Z,73.01
2022-10-04T12:49:41.182Z,73.04
2022-10-04T12:52:10.441Z,73.08
2022-10-04T12:54:44.397Z,73.67
2022-10-04T12:57:10.681Z,73.17
2022-10-04T12:59:55.594Z,72.85
2022-10-04T13:02:31.745Z,72.08
2022-10-04T13:04:58.043Z,70.94
2022-10-04T13:07:36.697Z,71.89
2022-10-04T13:10:24.142Z,72.18
2022-10-04T13:13:11.029Z,72.74
2022-10-04T13:19:07.202Z,72.25
2022-10-04T13:21:38.615Z,72.26
2022-10-04T13:24:04.957Z,72.44
2022-10-04T13:26:52.970Z,71.60
2022-10-04T13:29:25.241Z,72.77
2022-10-04T13:31:57.422Z,74.39
2022-10-04T13:34:42.296Z,72.42
2022-10-04T13:37:24.321Z,74.31
2022-10-04T13:39:50.544Z,73.54
2022-10-04T13:42:35.095Z,73.69
2022-10-04T13:45:04.461Z,73.27
2022-10-04T13:47:34.233Z,73.02
2022-10-04T13:50:09.842Z,73.58
2022-10-04T13:52:54.862Z,74.25
2022-10-04T13:56:04.624Z,74.13
2022-10-04T13:58:42.942Z,74.05
2022-10-04T14:01:21.188Z,73.51
2022-10-04T14:04:06.441Z,73.58
2022-10-04T14:06:41.953Z,74.38
2022-10-04T14:09:24.610Z,73.96
2022-10-04T14:12:01.830Z,74.54
2022-10-04T14:14:48.957Z,74.18
2022-10-04T14:17:24.765Z,74.31
2022-10-04T14:20:09.742Z,76.60
2022-10-04T14:22:50.345Z,75.94
2022-10-04T14:25:35.674Z,76.40
2022-10-04T14:28:05.045Z,76.46
2022-10-04T14:30:43.502Z,75.86
2022-10-04T14:33:19.708Z,75.32
2022-10-04T14:36:04.572Z,75.45
2022-10-04T14:38:47.391Z,75.71
2022-10-04T14:41:25.755Z,75.45
2022-10-04T14:43:52.018Z,75.69
2022-10-04T14:46:37.636Z,76.45
2022-10-04T14:49:18.579Z,73.66
2022-10-04T14:52:08.350Z,73.64
2022-10-04T14:54:34.996Z,72.73
2022-10-04T14:57:05.277Z,74.05
2022-10-04T14:59:58.993Z,75.28
2022-10-04T15:02:31.877Z,74.69
2022-10-04T15:05:17.165Z,75.66
2022-10-04T15:07:54.521Z,75.12
2022-10-04T15:10:27.753Z,75.92
2022-10-04T15:13:12.682Z,77.07
2022-10-04T15:16:02.826Z,76.19
2022-10-04T15:18:38.566Z,75.26
2022-10-04T15:21:12.263Z,76.15
2022-10-04T15:23:47.765Z,74.50
2022-10-04T15:26:19.805Z,74.17
2022-10-04T15:28:49.112Z,73.65
2022-10-04T15:31:21.599Z,74.78
2022-10-04T15:34:06.756Z,75.16
2022-10-04T15:36:37.228Z,75.11
2022-10-04T15:39:08.608Z,76.96
2022-10-04T15:41:34.840Z,77.53
2022-10-04T15:44:15.036Z,78.15
2022-10-04T15:46:47.713Z,77.89
2022-10-04T15:49:20.642Z,78.04
2022-10-04T16:40:07.660Z,84.37
2022-10-04T16:42:52.909Z,80.71
2022-10-04T16:45:32.882Z,79.11
2022-10-04T16:48:14.992Z,78.29
2022-10-04T16:51:19.245Z,78.05
2022-10-04T16:54:07.394Z,78.39
2022-10-04T16:57:03.559Z,76.95
2022-10-04T16:59:39.032Z,76.41
2022-10-04T17:02:17.205Z,76.02
2022-10-04T17:05:02.694Z,76.93
2022-10-04T17:07:52.867Z,76.65
2022-10-04T17:10:38.240Z,75.50
2022-10-04T17:13:38.456Z,76.16
2022-10-04T17:16:20.305Z,75.62
2022-10-04T17:19:12.842Z,75.45
2022-10-04T17:21:48.895Z,75.68
2022-10-04T17:24:37.526Z,76.00
2022-10-04T17:27:27.321Z,75.35
2022-10-04T17:30:05.254Z,75.41
2022-10-04T17:33:00.969Z,75.68
2022-10-04T17:35:54.689Z,74.52
2022-10-04T17:38:29.420Z,74.79
2022-10-04T17:41:08.053Z,75.05
2022-10-04T17:44:03.155Z,75.29
2022-10-04T17:46:50.416Z,74.52
2022-10-04T17:49:56.617Z,75.22
2022-10-04T17:52:53.105Z,75.91
2022-10-04T17:55:28.768Z,75.28
2022-10-04T17:58:14.033Z,75.53
2022-10-04T18:00:52.684Z,75.16
2022-10-04T18:03:39.886Z,75.43
2022-10-04T18:06:16.446Z,75.63
2022-10-04T18:09:14.243Z,75.93
2022-10-04T18:11:49.951Z,76.07
2022-10-04T18:14:50.821Z,75.76
2022-10-04T18:17:31.035Z,75.33
2022-10-04T18:20:27.270Z,75.96
2022-10-04T18:23:17.219Z,76.46
2022-10-04T18:25:44.042Z,75.98
2022-10-04T18:28:10.387Z,76.35
2022-10-04T18:30:46.023Z,76.47
2022-10-04T18:33:16.876Z,76.10
2022-10-04T18:36:15.708Z,76.72
2022-10-04T18:39:00.601Z,76.57
2022-10-04T18:41:47.453Z,76.99
2022-10-04T18:44:16.849Z,76.36
2022-10-04T18:46:47.985Z,76.22
2022-10-04T18:49:25.383Z,75.55
2022-10-04T18:52:07.239Z,75.29
2022-10-04T18:54:45.505Z,74.70
2022-10-04T18:57:27.140Z,74.50
2022-10-04T19:00:30.755Z,74.41
2022-10-04T19:02:57.191Z,74.88
2022-10-04T19:05:51.443Z,74.61
2022-10-04T19:08:39.728Z,74.52
2022-10-04T19:11:35.038Z,73.80
2022-10-04T19:14:22.282Z,74.33
2022-10-04T19:17:27.246Z,73.97
2022-10-04T19:19:53.579Z,74.02
2022-10-04T19:22:47.372Z,74.01
2022-10-04T19:25:33.493Z,73.86
2022-10-04T19:28:06.779Z,74.61
2022-10-04T19:31:00.685Z,74.23
2022-10-04T19:33:58.452Z,74.93
2022-10-04T19:36:31.329Z,75.46
2022-10-04T19:39:17.081Z,76.28
2022-10-04T19:42:02.864Z,77.13
2022-10-04T19:44:38.654Z,77.92
2022-10-04T19:47:40.368Z,78.48
2022-10-04T19:50:17.687Z,78.99
2022-10-04T19:52:59.544Z,79.72
2022-10-04T19:55:46.105Z,80.29
2022-10-04T19:58:26.547Z,80.37
2022-10-04T20:00:53.189Z,80.14
2022-10-04T20:03:19.723Z,81.64
2022-10-04T20:05:48.717Z,81.47
2022-10-04T20:08:36.423Z,80.99
2022-10-04T20:11:23.457Z,81.00
2022-10-04T20:14:07.075Z,82.37
2022-10-04T20:16:49.472Z,82.58
2022-10-04T20:19:26.814Z,82.34
2022-10-04T20:21:54.381Z,83.04
2022-10-04T20:24:35.714Z,82.46
2022-10-04T20:27:09.162Z,82.64
2022-10-04T20:29:45.938Z,82.26
2022-10-04T20:32:33.121Z,82.88
2022-10-04T20:35:01.399Z,82.83
2022-10-04T20:38:07.629Z,82.73
2022-10-04T20:40:45.528Z,82.90
2022-10-04T20:43:15.141Z,82.83
2022-10-04T20:45:46.304Z,83.94
2022-10-04T20:48:18.364Z,84.56
2022-10-04T20:50:49.270Z,83.68
2022-10-04T20:53:31.803Z,83.59
2022-10-04T20:56:23.996Z,84.18
2022-10-04T20:58:56.103Z,83.15
2022-10-04T21:01:33.780Z,83.44
2022-10-04T21:04:15.472Z,81.60
2022-10-04T21:06:56.078Z,80.47
2022-10-04T21:09:22.644Z,79.74
2022-10-04T21:11:54.313Z,79.76
2022-10-04T21:14:25.535Z,78.92
2022-10-04T21:16:56.515Z,79.33
2022-10-04T21:19:32.632Z,79.13
2022-10-04T21:21:58.992Z,78.97
2022-10-04T21:24:41.786Z,78.44
2022-10-04T21:27:10.833Z,78.64
2022-10-04T21:29:38.240Z,78.76
2022-10-04T21:32:04.941Z,79.09
2022-10-04T21:34:51.816Z,79.44
2022-10-04T21:37:18.889Z,80.22
2022-10-04T21:39:45.385Z,80.17
2022-10-04T21:42:11.813Z,80.55
2022-10-04T21:44:39.858Z,80.81
2022-10-04T21:47:06.186Z,81.40
2022-10-04T21:49:32.553Z,81.42
2022-10-04T21:51:58.896Z,81.58
2022-10-04T21:54:25.219Z,81.48
2022-10-04T21:56:51.692Z,81.45
2022-10-04T21:59:18.059Z,81.59
2022-10-04T22:01:44.388Z,81.46
2022-10-04T22:04:10.804Z,81.05
2022-10-04T22:06:37.305Z,80.97
2022-10-04T22:09:03.914Z,81.33
2022-10-04T22:11:30.273Z,80.85
2022-10-04T22:13:56.597Z,80.13
2022-10-04T22:16:23.004Z,80.11
2022-10-04T22:18:49.391Z,79.75
2022-10-04T22:21:15.718Z,80.07
2022-10-04T22:23:43.391Z,80.22
2022-10-04T22:26:15.759Z,79.89
2022-10-04T22:28:45.396Z,79.16
2022-10-04T22:31:13.317Z,79.95
2022-10-04T22:33:41.593Z,79.09
2022-10-04T22:36:15.327Z,79.07
2022-10-04T22:38:44.395Z,78.64
2022-10-04T22:41:16.047Z,78.87
2022-10-04T22:43:44.262Z,78.65
2022-10-04T22:46:16.818Z,79.02
2022-10-04T22:48:48.090Z,78.64
2022-10-04T22:51:15.323Z,78.12
2022-10-04T22:53:44.151Z,78.89
2022-10-04T22:56:13.121Z,78.94
2022-10-04T22:58:40.086Z,78.69
2022-10-04T23:01:15.647Z,78.86
2022-10-04T23:03:46.159Z,77.65
2022-10-04T23:06:14.213Z,78.04
2022-10-04T23:08:44.564Z,77.78
2022-10-04T23:11:11.516Z,77.11
2022-10-04T23:13:38.484Z,77.01
2022-10-04T23:16:19.293Z,76.36
2022-10-04T23:18:45.695Z,76.27
2022-10-04T23:21:21.171Z,75.80
2022-10-04T23:23:48.067Z,75.74
2022-10-04T23:26:22.233Z,75.25
2022-10-04T23:28:48.768Z,75.38
2022-10-04T23:31:26.817Z,75.14
2022-10-04T23:33:56.648Z,76.10
2022-10-04T23:36:23.312Z,75.54
2022-10-04T23:38:55.194Z,75.44
2022-10-04T23:41:21.508Z,74.93
2022-10-04T23:43:48.997Z,74.35
2022-10-04T23:46:19.106Z,74.39
2022-10-04T23:48:46.777Z,74.94
2022-10-04T23:51:18.281Z,74.97
2022-10-04T23:53:48.398Z,74.71
2022-10-04T23:56:21.434Z,74.74
2022-10-04T23:58:49.709Z,75.31
